Flight Track Log - Related Links

Times and Time Zones

All times are in EDT time to prevent confusion due to time zone crossing. See the SWA1619 flight status page for this flight to view local times or setup timezone preferences in your user account.

Time Position Orientation Groundspeed Altitude Reporting Facility
EDT Latitude Longitude Course Direction KTS MPH feet Rate Location/Type
Mon 08:07:01 AM 29.6306 -95.2608 22° Northeast 152 175 1,100  Level Houston Center
Mon 08:08:16 AM 29.6803 -95.2372 22° Northeast 248 285 3,600 2,559 Climbing Houston Center
Mon 08:09:17 AM 29.7472 -95.2564 346° North 244 281 6,900 3,463 Climbing Houston Center
Mon 08:10:19 AM 29.8231 -95.2794 345° North 273 314 10,700 3,462 Climbing Houston Center
Mon 08:10:35 AM 29.8581 -95.2911 344° North 312 359 11,400 2,164 Climbing Houston Center
Mon 08:11:20 AM 29.9136 -95.2853 North 344 396 12,900 2,547 Climbing Houston Center
Mon 08:12:21 AM 30.0050 -95.2244 30° Northeast 378 435 15,900 3,024 Climbing Houston Center
Mon 08:13:23 AM 30.0994 -95.1617 30° Northeast 387 445 19,100 3,073 Climbing Houston Center
Mon 08:14:24 AM 30.2219 -95.0906 27° Northeast 405 466 22,200 2,754 Climbing Houston Center
Mon 08:15:25 AM 30.3297 -95.0272 27° Northeast 424 488 24,700 2,293 Climbing Houston Center
Mon 08:16:27 AM 30.4406 -94.9586 28° Northeast 439 505 26,900 2,049 Climbing Houston Center
Mon 08:17:28 AM 30.5533 -94.8908 27° Northeast 450 518 28,900 1,869 Climbing Houston Center
Mon 08:18:29 AM 30.6656 -94.8053 33° Northeast 477 549 30,700 1,707 Climbing Houston Center
Mon 08:19:31 AM 30.7789 -94.7194 33° Northeast 485 558 32,400 1,805 Climbing Houston Center
Mon 08:20:32 AM 30.8925 -94.6311 34° Northeast 492 566 34,400 2,019 Climbing Houston Center
Mon 08:21:15 AM 30.9744 -94.5642 35° Northeast 489 563 35,900 1,515 Climbing Fort Worth Center
Mon 08:22:15 AM 31.0894 -94.4758 33° Northeast 489 563 37,000 1,100 Climbing Fort Worth Center
Mon 08:23:15 AM 31.2022 -94.3922 32° Northeast 482 555 38,100 1,000 Climbing Fort Worth Center
Mon 08:24:15 AM 31.3189 -94.2961 35° Northeast 487 560 39,000 850 Climbing Fort Worth Center
Mon 08:25:15 AM 31.4336 -94.2069 34° Northeast 487 560 39,800 850 Climbing Fort Worth Center
Mon 08:26:15 AM 31.5392 -94.0936 42° Northeast 499 574 40,700 600 Climbing Fort Worth Center
Mon 08:27:15 AM 31.6406 -93.9803 44° Northeast 505 581 41,000 150 Climbing Fort Worth Center
Mon 08:28:15 AM 31.7400 -93.8739 42° Northeast 491 565 41,000  Level Fort Worth Center
Mon 08:29:15 AM 31.8408 -93.7575 44° Northeast 491 565 41,000  Level Fort Worth Center
Mon 08:30:15 AM 31.9461 -93.6431 43° Northeast 491 565 41,000  Level Fort Worth Center
Mon 08:31:15 AM 32.0450 -93.5264 45° Northeast 496 571 41,000  Level Fort Worth Center
Mon 08:32:15 AM 32.1436 -93.4142 44° Northeast 491 565 41,000  Level Fort Worth Center
Mon 08:33:15 AM 32.2442 -93.2944 45° Northeast 491 565 41,000  Level Fort Worth Center
Mon 08:34:15 AM 32.3447 -93.1792 44° Northeast 491 565 41,000  Level Fort Worth Center
Mon 08:35:15 AM 32.4453 -93.0661 43° Northeast 491 565 41,000  Level Fort Worth Center
Mon 08:36:15 AM 32.5411 -92.9433 47° Northeast 491 565 41,000  Level Fort Worth Center
Mon 08:37:15 AM 32.6281 -92.8083 53° Northeast 497 572 41,000  Level Fort Worth Center
Mon 08:38:15 AM 32.7150 -92.6756 52° Northeast 504 580 41,000  Level Fort Worth Center
Mon 08:39:15 AM 32.8017 -92.5422 52° Northeast 504 580 41,000  Level Fort Worth Center
Mon 08:40:15 AM 32.8883 -92.4089 52° Northeast 504 580 41,000  Level Fort Worth Center
Mon 08:42:06 AM 33.0536 -92.1467 53° Northeast 523 602 41,000  Level Memphis Center
Mon 08:43:06 AM 33.1200 -92.0389 54° Northeast 517 595 41,000  Level Memphis Center
Mon 08:44:06 AM 33.2117 -91.8942 53° Northeast 505 581 41,000  Level Memphis Center
Mon 08:45:06 AM 33.2944 -91.7714 51° Northeast 505 581 41,000  Level Memphis Center
Mon 08:46:06 AM 33.3817 -91.6261 54° Northeast 500 575 41,000  Level Memphis Center
Mon 08:47:06 AM 33.4664 -91.4903 53° Northeast 500 575 41,000  Level Memphis Center
Mon 08:48:06 AM 33.5511 -91.3492 54° Northeast 500 575 41,000  Level Memphis Center
Mon 08:49:06 AM 33.6375 -91.2131 53° Northeast 506 582 41,000  Level Memphis Center
Mon 08:50:06 AM 33.7219 -91.0789 53° Northeast 506 582 41,000  Level Memphis Center
Mon 08:51:06 AM 33.8061 -90.9447 53° Northeast 501 577 41,000  Level Memphis Center
Mon 08:52:06 AM 33.8964 -90.7950 54° Northeast 501 577 41,000  Level Memphis Center
Mon 08:53:06 AM 33.9825 -90.6578 53° Northeast 507 583 41,000  Level Memphis Center
Mon 08:54:06 AM 34.0642 -90.5203 54° Northeast 502 578 41,000  Level Memphis Center
Mon 08:55:06 AM 34.1478 -90.3822 54° Northeast 507 583 41,000 -50 Level Memphis Center
Mon 08:56:06 AM 34.2228 -90.2567 54° Northeast 507 583 40,900 -450 Descending Memphis Center
Mon 08:57:06 AM 34.3061 -90.1158 54° Northeast 512 589 40,100 -800 Descending Memphis Center
Mon 08:58:06 AM 34.3850 -89.9847 54° Northeast 494 568 39,300 -750 Descending Memphis Center
Mon 08:59:06 AM 34.4658 -89.8483 54° Northeast 494 568 38,600 -750 Descending Memphis Center
Mon 09:00:06 AM 34.5444 -89.7142 55° Northeast 494 568 37,800 -750 Descending Memphis Center
Mon 09:01:06 AM 34.6231 -89.5747 56° Northeast 499 574 37,100 -750 Descending Memphis Center
Mon 09:02:06 AM 34.7075 -89.4375 53° Northeast 499 574 36,300 -750 Descending Memphis Center
Mon 09:03:06 AM 34.7900 -89.3000 54° Northeast 499 574 35,600 -650 Descending Memphis Center
Mon 09:04:06 AM 34.8700 -89.1625 55° Northeast 504 580 35,000 -300 Descending Memphis Center
Mon 09:05:06 AM 34.9522 -89.0294 53° Northeast 490 564 35,000  Level Memphis Center
Mon 09:06:06 AM 35.0278 -88.8964 55° Northeast 490 564 35,000  Level Memphis Center
Mon 09:07:06 AM 35.1033 -88.7631 55° Northeast 480 552 35,000  Level Memphis Center
Mon 09:08:06 AM 35.1831 -88.6319 53° Northeast 480 552 35,000 -1,000 Level Memphis Center
Mon 09:09:06 AM 35.2644 -88.4853 56° Northeast 480 552 33,000 -2,250 Descending Memphis Center
Mon 09:10:06 AM 35.3336 -88.3719 53° Northeast 475 547 30,500 -2,350 Descending Memphis Center
Mon 09:11:06 AM 35.4083 -88.2350 56° Northeast 475 547 28,300 -2,150 Descending Memphis Center
Mon 09:12:06 AM 35.4792 -88.1133 54° Northeast 459 528 26,200 -2,050 Descending Memphis Center
Mon 09:13:06 AM 35.5561 -87.9811 54° Northeast 434 499 24,200 -2,000 Descending Memphis Center
Mon 09:14:06 AM 35.6225 -87.8617 56° Northeast 429 494 22,200 -2,000 Descending Memphis Center
Mon 09:15:06 AM 35.6869 -87.7447 56° Northeast 418 481 20,200 -2,000 Descending Memphis Center
Mon 09:16:06 AM 35.7511 -87.6353 54° Northeast 404 465 18,200 -1,850 Descending Memphis Center
Mon 09:17:06 AM 35.8092 -87.5258 57° Northeast 390 449 16,500 -1,800 Descending Memphis Center
Mon 09:18:06 AM 35.8525 -87.4117 65° Northeast 370 426 14,600 -1,850 Descending Memphis Center
Mon 09:19:06 AM 35.8936 -87.2975 66° East 360 414 12,800 -1,750 Descending Memphis Center
Mon 09:20:06 AM 35.9325 -87.1911 66° East 355 409 11,100 -1,500 Descending Memphis Center
Mon 09:21:06 AM 35.9717 -87.0894 65° Northeast 333 383 9,800 -1,300 Descending Memphis Center
Mon 09:22:06 AM 36.0108 -86.9956 63° Northeast 313 360 8,500 -1,350 Descending Memphis Center
Mon 09:23:06 AM 36.0478 -86.9042 63° Northeast 295 339 7,100 -1,200 Descending Memphis Center
Mon 09:24:06 AM 36.0811 -86.8231 63° Northeast 274 315 6,100 -750 Descending Memphis Center
Mon 09:25:06 AM 36.1169 -86.7675 51° Northeast 247 284 5,600 -600 Descending Memphis Center
Mon 09:26:06 AM 36.1817 -86.7700 358° North 199 229 4,900 -1,000 Descending Memphis Center
Mon 09:27:06 AM 36.2414 -86.7442 19° North 211 243 3,600 -1,000 Descending Memphis Center
Mon 09:28:06 AM 36.2794 -86.6936 47° Northeast 214 246 2,900 -650 Descending Memphis Center
Mon 09:29:06 AM 36.2431 -86.6592 143° Southeast 115 132 2,300 -550 Descending Memphis Center
Mon 09:30:06 AM 36.1992 -86.6561 177° South 109 125 1,800 -550 Descending Memphis Center
Mon 09:31:06 AM 36.1664 -86.6703 199° South 135 155 1,200 -600 Descending Memphis Center
Mon 09:33:00 AM 36.1245 -86.6782 165° South  Level Estimated
Mon 09:40:00 AM 36.1245 -86.6782 165° South  Level Estimated
Mon 09:41:00 AM 36.1245 -86.6782 165° South  Level Estimated
Mon 09:42:00 AM 36.1245 -86.6782 165° South  Level Estimated
Mon 09:43:00 AM 36.1245 -86.6782 165° South  Level Estimated
Mon 09:44:00 AM 36.1245 -86.6782 165° South  Level Estimated
Mon 09:45:00 AM 36.1245 -86.6782 165° South  Level Estimated

Login

Don't have an account? Register now (free) for customized features, flight alerts, and more!